Capt Eddie — WDC3053 — position and weather

sailwx.info

Track history (hours):
 
Tides and Currents Weather Stations Pressure Air Temp Water Temp Dewpoint Dewpoint Depression Visibility Wind Speed Wind Dir Waves Ship Positions

Capt Eddie

Owner: CENTRAL BOAT RENTALS, BERWICK, LA. More information available from US FCC via Universal Licensing System and Coast Guard Vessel Documentation Center.

Last reported at 2017-Nov-18 13:29 UTC. Time now 2017-Nov-23 18:35 UTC.
Position N 29°25' W 090°44'.

Length 20 m; draft 2 m.

Type: Tug. MMSI: 367002050.

Date/timePositionNaut miles runAvg speedWind from/ knotsBaromVisibWave heightAir tempDewpointWater temp
2017-Nov-18 13:29N 29°25' W 090°44'3 6.5
2017-Nov-18 13:00N 29°28' W 090°43'3 6.7
2017-Nov-18 12:30N 29°31' W 090°43'3 6.3
2017-Nov-18 12:00N 29°34' W 090°43'3 5.4
2017-Nov-18 11:30N 29°33' W 090°46'3 6.3
2017-Nov-18 11:00N 29°32' W 090°49'3 6.7
2017-Nov-18 10:30N 29°32' W 090°53'  
2017-Nov-15 21:01N 29°32' W 090°50'0 7.0
2017-Nov-15 20:58N 29°32' W 090°50'3 6.4
2017-Nov-15 20:30N 29°32' W 090°47'3 5.4
2017-Nov-15 20:00N 29°34' W 090°44'1 2.3
2017-Nov-15 19:31N 29°34' W 090°43'1 1.8
2017-Nov-15 18:58N 29°33' W 090°42'0 0.0
2017-Nov-15 18:28N 29°33' W 090°42'0 0.3
2017-Nov-15 18:00N 29°33' W 090°42'1 1.6
2017-Nov-15 17:30N 29°32' W 090°42'3 5.8
2017-Nov-15 17:00N 29°29' W 090°43'3 6.1
2017-Nov-15 16:30N 29°26' W 090°43'2 0.2
2017-Nov-15 05:57N 29°25' W 090°44'3 7.1
2017-Nov-15 05:30N 29°28' W 090°43'3 7.0
2017-Nov-15 05:00N 29°31' W 090°42'3 6.2
2017-Nov-15 04:30N 29°34' W 090°43'3 6.3
2017-Nov-15 04:00N 29°32' W 090°46'3 7.0
2017-Nov-15 03:30N 29°32' W 090°50'4 6.9
2017-Nov-15 02:59N 29°33' W 090°54'  
Track history (hours):
 
Tides and Currents Weather Stations Pressure Air Temp Water Temp Dewpoint Dewpoint Depression Visibility Wind Speed Wind Dir Waves Ship Positions

Capt Eddie

Owner: CENTRAL BOAT RENTALS, BERWICK, LA. More information available from US FCC via Universal Licensing System and Coast Guard Vessel Documentation Center.

Last reported at 2017-Nov-18 13:29 UTC. Time now 2017-Nov-23 18:35 UTC.
Position N 29°25' W 090°44'.

Length 20 m; draft 2 m.

Type: Tug. MMSI: 367002050.

Date/timePositionNaut miles runAvg speedWind from/ knotsBaromVisibWave heightAir tempDewpointWater temp
2017-Nov-18 13:29N 29°25' W 090°44'3 6.5
2017-Nov-18 13:00N 29°28' W 090°43'3 6.7
2017-Nov-18 12:30N 29°31' W 090°43'3 6.3
2017-Nov-18 12:00N 29°34' W 090°43'3 5.4
2017-Nov-18 11:30N 29°33' W 090°46'3 6.3
2017-Nov-18 11:00N 29°32' W 090°49'3 6.7
2017-Nov-18 10:30N 29°32' W 090°53'  
2017-Nov-15 21:01N 29°32' W 090°50'0 7.0
2017-Nov-15 20:58N 29°32' W 090°50'3 6.4
2017-Nov-15 20:30N 29°32' W 090°47'3 5.4
2017-Nov-15 20:00N 29°34' W 090°44'1 2.3
2017-Nov-15 19:31N 29°34' W 090°43'1 1.8
2017-Nov-15 18:58N 29°33' W 090°42'0 0.0
2017-Nov-15 18:28N 29°33' W 090°42'0 0.3
2017-Nov-15 18:00N 29°33' W 090°42'1 1.6
2017-Nov-15 17:30N 29°32' W 090°42'3 5.8
2017-Nov-15 17:00N 29°29' W 090°43'3 6.1
2017-Nov-15 16:30N 29°26' W 090°43'2 0.2
2017-Nov-15 05:57N 29°25' W 090°44'3 7.1
2017-Nov-15 05:30N 29°28' W 090°43'3 7.0
2017-Nov-15 05:00N 29°31' W 090°42'3 6.2
2017-Nov-15 04:30N 29°34' W 090°43'3 6.3
2017-Nov-15 04:00N 29°32' W 090°46'3 7.0
2017-Nov-15 03:30N 29°32' W 090°50'4 6.9
2017-Nov-15 02:59N 29°33' W 090°54'  

Dump ship's entire track history